Terminal Aerodrome Forecast
Issued by NWS Memphis, TN

Home | Current Version | Previous Version | Text Only | Print | Product List | Glossary On
Versions: 1 2 3 4 5 6 7 8 9 10 11 12 13 14 15 16 17 18 19 20 21 22 23 24 25
075
FTUS44 KMEG 150520
TAFMEM
TAF
KMEM 150520Z 1506/1612 04005KT P6SM BKN050
     FM150900 04003KT P6SM SCT050
     FM151500 31007KT P6SM SCT045
     FM160000 21004KT P6SM SKC=

USA.gov is the U.S. government's official web portal to all federal, state and local government web resources and services.